sensor_id;sensor_type;location;lat;lon;timestamp;P1;durP1;ratioP1;P2;durP2;ratioP2
66189;SDS011;52992;52.084;5.412;2023-03-15T00:01:59;18.80;;;17.57;;
66189;SDS011;52992;52.084;5.412;2023-03-15T00:04:26;23.10;;;21.30;;
66189;SDS011;52992;52.084;5.412;2023-03-15T00:06:53;16.27;;;15.27;;
66189;SDS011;52992;52.084;5.412;2023-03-15T00:09:20;18.47;;;17.13;;
66189;SDS011;52992;52.084;5.412;2023-03-15T00:11:47;15.97;;;14.73;;
66189;SDS011;52992;52.084;5.412;2023-03-15T00:14:14;19.43;;;18.17;;
66189;SDS011;52992;52.084;5.412;2023-03-15T00:16:41;17.90;;;16.63;;
66189;SDS011;52992;52.084;5.412;2023-03-15T00:19:09;16.53;;;15.43;;
66189;SDS011;52992;52.084;5.412;2023-03-15T00:21:36;13.93;;;13.13;;
66189;SDS011;52992;52.084;5.412;2023-03-15T00:24:03;15.93;;;14.83;;
66189;SDS011;52992;52.084;5.412;2023-03-15T00:26:30;15.27;;;13.97;;
66189;SDS011;52992;52.084;5.412;2023-03-15T00:28:57;15.47;;;14.47;;
66189;SDS011;52992;52.084;5.412;2023-03-15T00:31:24;15.77;;;14.87;;
66189;SDS011;52992;52.084;5.412;2023-03-15T00:33:51;14.00;;;13.20;;
66189;SDS011;52992;52.084;5.412;2023-03-15T00:36:22;14.60;;;13.70;;
66189;SDS011;52992;52.084;5.412;2023-03-15T00:38:50;15.63;;;14.63;;
66189;SDS011;52992;52.084;5.412;2023-03-15T00:41:19;14.90;;;13.93;;
66189;SDS011;52992;52.084;5.412;2023-03-15T00:43:47;13.90;;;13.00;;
66189;SDS011;52992;52.084;5.412;2023-03-15T00:46:15;14.10;;;13.27;;
66189;SDS011;52992;52.084;5.412;2023-03-15T00:48:45;14.27;;;13.37;;
66189;SDS011;52992;52.084;5.412;2023-03-15T00:51:14;16.20;;;15.20;;
66189;SDS011;52992;52.084;5.412;2023-03-15T00:53:44;15.27;;;14.20;;
66189;SDS011;52992;52.084;5.412;2023-03-15T00:56:14;14.57;;;13.40;;
66189;SDS011;52992;52.084;5.412;2023-03-15T00:58:42;14.37;;;13.13;;
66189;SDS011;52992;52.084;5.412;2023-03-15T01:01:14;15.27;;;14.17;;
66189;SDS011;52992;52.084;5.412;2023-03-15T01:03:46;13.83;;;13.00;;
66189;SDS011;52992;52.084;5.412;2023-03-15T01:06:14;14.80;;;13.97;;
66189;SDS011;52992;52.084;5.412;2023-03-15T01:08:46;13.27;;;12.20;;
66189;SDS011;52992;52.084;5.412;2023-03-15T01:11:15;13.83;;;13.03;;
66189;SDS011;52992;52.084;5.412;2023-03-15T01:13:45;12.83;;;11.90;;
66189;SDS011;52992;52.084;5.412;2023-03-15T01:16:12;13.20;;;12.40;;
66189;SDS011;52992;52.084;5.412;2023-03-15T01:18:41;12.13;;;11.53;;
66189;SDS011;52992;52.084;5.412;2023-03-15T01:21:09;12.50;;;11.67;;
66189;SDS011;52992;52.084;5.412;2023-03-15T01:23:37;11.83;;;11.23;;
66189;SDS011;52992;52.084;5.412;2023-03-15T01:26:06;12.07;;;11.37;;
66189;SDS011;52992;52.084;5.412;2023-03-15T01:28:36;11.43;;;10.93;;
66189;SDS011;52992;52.084;5.412;2023-03-15T01:31:03;11.53;;;10.93;;
66189;SDS011;52992;52.084;5.412;2023-03-15T01:33:30;11.53;;;10.83;;
66189;SDS011;52992;52.084;5.412;2023-03-15T01:36:02;12.10;;;11.43;;
66189;SDS011;52992;52.084;5.412;2023-03-15T01:38:31;11.90;;;11.30;;
66189;SDS011;52992;52.084;5.412;2023-03-15T01:40:59;11.77;;;10.87;;
66189;SDS011;52992;52.084;5.412;2023-03-15T01:43:27;11.00;;;10.50;;
66189;SDS011;52992;52.084;5.412;2023-03-15T01:48:33;12.60;;;11.90;;
66189;SDS011;52992;52.084;5.412;2023-03-15T01:51:23;12.00;;;11.40;;
66189;SDS011;52992;52.084;5.412;2023-03-15T01:56:59;11.33;;;10.83;;
66189;SDS011;52992;52.084;5.412;2023-03-15T01:59:41;12.23;;;11.63;;
66189;SDS011;52992;52.084;5.412;2023-03-15T02:02:13;12.50;;;11.70;;
66189;SDS011;52992;52.084;5.412;2023-03-15T02:04:42;10.80;;;10.10;;
66189;SDS011;52992;52.084;5.412;2023-03-15T02:07:19;12.07;;;11.47;;
66189;SDS011;52992;52.084;5.412;2023-03-15T02:09:56;12.83;;;12.23;;
66189;SDS011;52992;52.084;5.412;2023-03-15T02:12:34;12.87;;;12.27;;
66189;SDS011;52992;52.084;5.412;2023-03-15T02:15:05;12.20;;;11.60;;
66189;SDS011;52992;52.084;5.412;2023-03-15T02:17:36;14.03;;;13.23;;
66189;SDS011;52992;52.084;5.412;2023-03-15T02:22:43;12.20;;;11.63;;
66189;SDS011;52992;52.084;5.412;2023-03-15T02:28:20;12.83;;;12.07;;
66189;SDS011;52992;52.084;5.412;2023-03-15T02:30:47;13.13;;;12.53;;
66189;SDS011;52992;52.084;5.412;2023-03-15T02:33:24;13.50;;;12.60;;
66189;SDS011;52992;52.084;5.412;2023-03-15T02:36:06;13.67;;;12.87;;
66189;SDS011;52992;52.084;5.412;2023-03-15T02:38:35;12.57;;;11.97;;
66189;SDS011;52992;52.084;5.412;2023-03-15T02:41:03;13.53;;;12.83;;
66189;SDS011;52992;52.084;5.412;2023-03-15T02:43:32;13.57;;;12.80;;
66189;SDS011;52992;52.084;5.412;2023-03-15T02:46:00;12.30;;;11.80;;
66189;SDS011;52992;52.084;5.412;2023-03-15T02:48:30;12.50;;;11.90;;
66189;SDS011;52992;52.084;5.412;2023-03-15T02:50:58;13.50;;;12.80;;
66189;SDS011;52992;52.084;5.412;2023-03-15T02:53:28;11.33;;;10.83;;
66189;SDS011;52992;52.084;5.412;2023-03-15T02:55:56;12.93;;;12.17;;
66189;SDS011;52992;52.084;5.412;2023-03-15T02:58:23;12.90;;;12.30;;
66189;SDS011;52992;52.084;5.412;2023-03-15T03:00:51;12.07;;;11.47;;
66189;SDS011;52992;52.084;5.412;2023-03-15T03:03:19;11.47;;;10.97;;
66189;SDS011;52992;52.084;5.412;2023-03-15T03:05:46;12.67;;;12.07;;
66189;SDS011;52992;52.084;5.412;2023-03-15T03:08:13;12.87;;;11.77;;
66189;SDS011;52992;52.084;5.412;2023-03-15T03:10:42;12.07;;;11.50;;
66189;SDS011;52992;52.084;5.412;2023-03-15T03:13:09;12.80;;;12.20;;
66189;SDS011;52992;52.084;5.412;2023-03-15T03:15:37;12.80;;;12.13;;
66189;SDS011;52992;52.084;5.412;2023-03-15T03:18:04;11.60;;;10.90;;
66189;SDS011;52992;52.084;5.412;2023-03-15T03:20:31;13.37;;;12.40;;
66189;SDS011;52992;52.084;5.412;2023-03-15T03:22:59;12.83;;;12.27;;
66189;SDS011;52992;52.084;5.412;2023-03-15T03:25:31;12.63;;;12.00;;
66189;SDS011;52992;52.084;5.412;2023-03-15T03:27:58;12.60;;;11.87;;
66189;SDS011;52992;52.084;5.412;2023-03-15T03:30:33;13.07;;;12.47;;
66189;SDS011;52992;52.084;5.412;2023-03-15T03:33:01;12.80;;;12.20;;
66189;SDS011;52992;52.084;5.412;2023-03-15T03:35:30;13.97;;;13.27;;
66189;SDS011;52992;52.084;5.412;2023-03-15T03:37:57;12.57;;;11.87;;
66189;SDS011;52992;52.084;5.412;2023-03-15T03:40:31;14.57;;;13.63;;
66189;SDS011;52992;52.084;5.412;2023-03-15T03:43:02;12.13;;;11.53;;
66189;SDS011;52992;52.084;5.412;2023-03-15T03:45:29;12.93;;;12.33;;
66189;SDS011;52992;52.084;5.412;2023-03-15T03:47:58;15.10;;;13.87;;
66189;SDS011;52992;52.084;5.412;2023-03-15T03:50:25;13.50;;;12.90;;
66189;SDS011;52992;52.084;5.412;2023-03-15T03:52:53;14.13;;;13.17;;
66189;SDS011;52992;52.084;5.412;2023-03-15T03:55:24;13.43;;;12.73;;
66189;SDS011;52992;52.084;5.412;2023-03-15T03:57:52;13.60;;;12.83;;
66189;SDS011;52992;52.084;5.412;2023-03-15T04:00:37;13.60;;;12.70;;
66189;SDS011;52992;52.084;5.412;2023-03-15T04:03:05;14.23;;;13.50;;
66189;SDS011;52992;52.084;5.412;2023-03-15T04:05:35;14.53;;;13.33;;
66189;SDS011;52992;52.084;5.412;2023-03-15T04:08:02;13.57;;;12.77;;
66189;SDS011;52992;52.084;5.412;2023-03-15T04:10:34;13.97;;;12.80;;
66189;SDS011;52992;52.084;5.412;2023-03-15T04:13:01;13.80;;;12.97;;
66189;SDS011;52992;52.084;5.412;2023-03-15T04:15:28;13.97;;;13.00;;
66189;SDS011;52992;52.084;5.412;2023-03-15T04:17:57;13.90;;;13.20;;
66189;SDS011;52992;52.084;5.412;2023-03-15T04:20:30;13.93;;;12.97;;
66189;SDS011;52992;52.084;5.412;2023-03-15T04:23:01;14.13;;;13.23;;
66189;SDS011;52992;52.084;5.412;2023-03-15T04:26:06;14.30;;;13.40;;
66189;SDS011;52992;52.084;5.412;2023-03-15T04:28:46;13.97;;;13.03;;
66189;SDS011;52992;52.084;5.412;2023-03-15T04:31:31;14.13;;;13.13;;
66189;SDS011;52992;52.084;5.412;2023-03-15T04:34:23;13.00;;;12.30;;
66189;SDS011;52992;52.084;5.412;2023-03-15T04:37:12;14.80;;;13.80;;
66189;SDS011;52992;52.084;5.412;2023-03-15T04:40:00;15.10;;;14.20;;
66189;SDS011;52992;52.084;5.412;2023-03-15T04:42:42;13.90;;;13.00;;
66189;SDS011;52992;52.084;5.412;2023-03-15T04:45:25;14.47;;;13.67;;
66189;SDS011;52992;52.084;5.412;2023-03-15T04:48:11;14.37;;;13.47;;
66189;SDS011;52992;52.084;5.412;2023-03-15T04:50:46;15.33;;;14.40;;
66189;SDS011;52992;52.084;5.412;2023-03-15T04:53:31;14.57;;;13.40;;
66189;SDS011;52992;52.084;5.412;2023-03-15T04:56:11;13.87;;;13.07;;
66189;SDS011;52992;52.084;5.412;2023-03-15T04:58:44;14.50;;;13.50;;
66189;SDS011;52992;52.084;5.412;2023-03-15T05:01:31;14.93;;;13.90;;
66189;SDS011;52992;52.084;5.412;2023-03-15T05:04:11;14.80;;;13.80;;
66189;SDS011;52992;52.084;5.412;2023-03-15T05:06:56;12.80;;;12.00;;
66189;SDS011;52992;52.084;5.412;2023-03-15T05:09:46;14.53;;;13.73;;
66189;SDS011;52992;52.084;5.412;2023-03-15T05:12:29;14.23;;;13.43;;
66189;SDS011;52992;52.084;5.412;2023-03-15T05:15:16;14.67;;;13.77;;
66189;SDS011;52992;52.084;5.412;2023-03-15T05:18:12;13.53;;;12.73;;
66189;SDS011;52992;52.084;5.412;2023-03-15T05:20:57;14.93;;;13.83;;
66189;SDS011;52992;52.084;5.412;2023-03-15T05:23:40;12.70;;;12.00;;
66189;SDS011;52992;52.084;5.412;2023-03-15T05:26:29;14.13;;;13.23;;
66189;SDS011;52992;52.084;5.412;2023-03-15T05:29:13;14.07;;;13.00;;
66189;SDS011;52992;52.084;5.412;2023-03-15T05:32:04;13.43;;;12.63;;
66189;SDS011;52992;52.084;5.412;2023-03-15T05:34:50;13.23;;;12.47;;
66189;SDS011;52992;52.084;5.412;2023-03-15T05:37:38;15.10;;;14.20;;
66189;SDS011;52992;52.084;5.412;2023-03-15T05:40:26;13.83;;;13.00;;
66189;SDS011;52992;52.084;5.412;2023-03-15T05:43:33;14.63;;;13.83;;
66189;SDS011;52992;52.084;5.412;2023-03-15T05:46:17;15.70;;;14.80;;
66189;SDS011;52992;52.084;5.412;2023-03-15T05:49:13;14.13;;;13.43;;
66189;SDS011;52992;52.084;5.412;2023-03-15T05:51:59;14.20;;;13.40;;
66189;SDS011;52992;52.084;5.412;2023-03-15T05:54:45;14.07;;;12.90;;
66189;SDS011;52992;52.084;5.412;2023-03-15T05:57:27;14.17;;;13.23;;
66189;SDS011;52992;52.084;5.412;2023-03-15T06:00:18;15.07;;;13.60;;
66189;SDS011;52992;52.084;5.412;2023-03-15T06:02:49;15.20;;;13.67;;
66189;SDS011;52992;52.084;5.412;2023-03-15T06:05:31;13.40;;;12.77;;
66189;SDS011;52992;52.084;5.412;2023-03-15T06:08:01;14.67;;;13.77;;
66189;SDS011;52992;52.084;5.412;2023-03-15T06:10:29;14.90;;;13.50;;
66189;SDS011;52992;52.084;5.412;2023-03-15T06:12:59;14.17;;;13.27;;
66189;SDS011;52992;52.084;5.412;2023-03-15T06:15:26;13.97;;;13.07;;
66189;SDS011;52992;52.084;5.412;2023-03-15T06:17:54;14.63;;;13.37;;
66189;SDS011;52992;52.084;5.412;2023-03-15T06:20:21;13.37;;;12.50;;
66189;SDS011;52992;52.084;5.412;2023-03-15T06:22:48;18.13;;;12.20;;
66189;SDS011;52992;52.084;5.412;2023-03-15T06:25:27;12.53;;;11.90;;
66189;SDS011;52992;52.084;5.412;2023-03-15T06:27:54;13.03;;;12.00;;
66189;SDS011;52992;52.084;5.412;2023-03-15T06:30:22;15.03;;;14.13;;
66189;SDS011;52992;52.084;5.412;2023-03-15T06:32:54;13.73;;;12.80;;
66189;SDS011;52992;52.084;5.412;2023-03-15T06:35:21;13.87;;;12.63;;
66189;SDS011;52992;52.084;5.412;2023-03-15T06:37:48;13.00;;;12.27;;
66189;SDS011;52992;52.084;5.412;2023-03-15T06:40:18;14.00;;;13.20;;
66189;SDS011;52992;52.084;5.412;2023-03-15T06:42:46;14.17;;;13.07;;
66189;SDS011;52992;52.084;5.412;2023-03-15T06:45:15;12.67;;;11.80;;
66189;SDS011;52992;52.084;5.412;2023-03-15T06:47:44;14.70;;;13.87;;
66189;SDS011;52992;52.084;5.412;2023-03-15T06:50:11;14.43;;;13.63;;
66189;SDS011;52992;52.084;5.412;2023-03-15T06:52:38;13.00;;;11.90;;
66189;SDS011;52992;52.084;5.412;2023-03-15T06:55:05;13.80;;;12.67;;
66189;SDS011;52992;52.084;5.412;2023-03-15T06:57:33;13.27;;;12.40;;
66189;SDS011;52992;52.084;5.412;2023-03-15T07:00:00;13.17;;;12.37;;
66189;SDS011;52992;52.084;5.412;2023-03-15T07:02:26;12.67;;;11.63;;
66189;SDS011;52992;52.084;5.412;2023-03-15T07:04:53;12.73;;;12.00;;
66189;SDS011;52992;52.084;5.412;2023-03-15T07:07:20;12.00;;;11.30;;
66189;SDS011;52992;52.084;5.412;2023-03-15T07:09:47;13.90;;;12.57;;
66189;SDS011;52992;52.084;5.412;2023-03-15T07:12:14;14.07;;;12.80;;
66189;SDS011;52992;52.084;5.412;2023-03-15T07:14:40;13.53;;;12.73;;
66189;SDS011;52992;52.084;5.412;2023-03-15T07:17:07;14.07;;;13.23;;
66189;SDS011;52992;52.084;5.412;2023-03-15T07:19:34;14.50;;;13.60;;
66189;SDS011;52992;52.084;5.412;2023-03-15T07:22:12;15.83;;;14.93;;
66189;SDS011;52992;52.084;5.412;2023-03-15T07:24:38;15.07;;;13.97;;
66189;SDS011;52992;52.084;5.412;2023-03-15T07:27:05;15.33;;;14.37;;
66189;SDS011;52992;52.084;5.412;2023-03-15T07:29:32;15.57;;;14.53;;
66189;SDS011;52992;52.084;5.412;2023-03-15T07:31:59;16.30;;;15.20;;
66189;SDS011;52992;52.084;5.412;2023-03-15T07:34:26;14.67;;;13.67;;
66189;SDS011;52992;52.084;5.412;2023-03-15T07:36:53;14.93;;;13.73;;
66189;SDS011;52992;52.084;5.412;2023-03-15T07:39:20;14.57;;;13.67;;
66189;SDS011;52992;52.084;5.412;2023-03-15T07:41:48;13.93;;;13.13;;
66189;SDS011;52992;52.084;5.412;2023-03-15T07:44:30;13.50;;;12.63;;
66189;SDS011;52992;52.084;5.412;2023-03-15T07:46:57;12.37;;;11.50;;
66189;SDS011;52992;52.084;5.412;2023-03-15T07:49:24;14.17;;;13.17;;
66189;SDS011;52992;52.084;5.412;2023-03-15T07:51:51;12.77;;;11.73;;
66189;SDS011;52992;52.084;5.412;2023-03-15T07:54:17;12.60;;;11.50;;
66189;SDS011;52992;52.084;5.412;2023-03-15T07:56:45;12.40;;;11.73;;
66189;SDS011;52992;52.084;5.412;2023-03-15T07:59:12;12.00;;;11.40;;
66189;SDS011;52992;52.084;5.412;2023-03-15T08:01:38;13.03;;;11.77;;
66189;SDS011;52992;52.084;5.412;2023-03-15T08:04:05;11.63;;;10.83;;
66189;SDS011;52992;52.084;5.412;2023-03-15T08:06:32;11.07;;;10.37;;
66189;SDS011;52992;52.084;5.412;2023-03-15T08:08:59;10.90;;;10.10;;
66189;SDS011;52992;52.084;5.412;2023-03-15T08:11:29;10.93;;;10.13;;
66189;SDS011;52992;52.084;5.412;2023-03-15T08:13:56;11.43;;;10.50;;
66189;SDS011;52992;52.084;5.412;2023-03-15T08:16:23;11.73;;;11.13;;
66189;SDS011;52992;52.084;5.412;2023-03-15T08:18:50;11.27;;;10.47;;
66189;SDS011;52992;52.084;5.412;2023-03-15T08:21:17;10.70;;;10.07;;
66189;SDS011;52992;52.084;5.412;2023-03-15T08:23:44;11.13;;;10.30;;
66189;SDS011;52992;52.084;5.412;2023-03-15T08:26:10;11.90;;;10.87;;
66189;SDS011;52992;52.084;5.412;2023-03-15T08:28:37;12.27;;;11.47;;
66189;SDS011;52992;52.084;5.412;2023-03-15T08:31:07;12.20;;;10.13;;
66189;SDS011;52992;52.084;5.412;2023-03-15T08:33:34;11.27;;;10.57;;
66189;SDS011;52992;52.084;5.412;2023-03-15T08:36:01;11.80;;;10.93;;
66189;SDS011;52992;52.084;5.412;2023-03-15T08:38:28;11.17;;;10.53;;
66189;SDS011;52992;52.084;5.412;2023-03-15T08:40:55;11.20;;;10.30;;
66189;SDS011;52992;52.084;5.412;2023-03-15T08:43:22;10.73;;;10.23;;
66189;SDS011;52992;52.084;5.412;2023-03-15T08:45:50;11.40;;;10.70;;
66189;SDS011;52992;52.084;5.412;2023-03-15T08:48:26;10.63;;;10.03;;
66189;SDS011;52992;52.084;5.412;2023-03-15T08:50:53;11.07;;;10.57;;
66189;SDS011;52992;52.084;5.412;2023-03-15T08:53:20;10.50;;;10.00;;
66189;SDS011;52992;52.084;5.412;2023-03-15T08:55:47;10.37;;;9.67;;
66189;SDS011;52992;52.084;5.412;2023-03-15T08:58:14;12.17;;;10.90;;
66189;SDS011;52992;52.084;5.412;2023-03-15T09:00:41;11.27;;;10.57;;
66189;SDS011;52992;52.084;5.412;2023-03-15T09:03:08;11.37;;;10.63;;
66189;SDS011;52992;52.084;5.412;2023-03-15T09:05:36;11.60;;;10.60;;
66189;SDS011;52992;52.084;5.412;2023-03-15T09:08:03;11.57;;;10.87;;
66189;SDS011;52992;52.084;5.412;2023-03-15T09:10:30;11.00;;;10.30;;
66189;SDS011;52992;52.084;5.412;2023-03-15T09:12:56;10.37;;;9.43;;
66189;SDS011;52992;52.084;5.412;2023-03-15T09:15:23;11.30;;;10.40;;
66189;SDS011;52992;52.084;5.412;2023-03-15T09:17:50;10.77;;;10.13;;
66189;SDS011;52992;52.084;5.412;2023-03-15T09:20:17;10.67;;;9.63;;
66189;SDS011;52992;52.084;5.412;2023-03-15T09:22:51;12.20;;;11.27;;
66189;SDS011;52992;52.084;5.412;2023-03-15T09:25:19;10.80;;;10.17;;
66189;SDS011;52992;52.084;5.412;2023-03-15T09:27:46;11.63;;;10.63;;
66189;SDS011;52992;52.084;5.412;2023-03-15T09:30:13;11.27;;;10.40;;
66189;SDS011;52992;52.084;5.412;2023-03-15T09:32:41;11.37;;;10.70;;
66189;SDS011;52992;52.084;5.412;2023-03-15T09:35:11;12.57;;;11.63;;
66189;SDS011;52992;52.084;5.412;2023-03-15T09:37:39;10.67;;;9.83;;
66189;SDS011;52992;52.084;5.412;2023-03-15T09:40:15;10.73;;;10.10;;
66189;SDS011;52992;52.084;5.412;2023-03-15T09:48:15;11.23;;;10.33;;
66189;SDS011;52992;52.084;5.412;2023-03-15T09:50:52;10.80;;;9.90;;
66189;SDS011;52992;52.084;5.412;2023-03-15T09:53:30;10.07;;;9.30;;
66189;SDS011;52992;52.084;5.412;2023-03-15T09:56:23;9.60;;;9.00;;
66189;SDS011;52992;52.084;5.412;2023-03-15T09:58:54;9.83;;;9.00;;
66189;SDS011;52992;52.084;5.412;2023-03-15T10:01:25;9.30;;;8.63;;
66189;SDS011;52992;52.084;5.412;2023-03-15T10:03:56;9.47;;;8.77;;
66189;SDS011;52992;52.084;5.412;2023-03-15T10:06:25;10.10;;;9.20;;
66189;SDS011;52992;52.084;5.412;2023-03-15T10:08:56;10.53;;;9.73;;
66189;SDS011;52992;52.084;5.412;2023-03-15T10:20:40;10.00;;;9.20;;
66189;SDS011;52992;52.084;5.412;2023-03-15T10:23:22;9.43;;;8.70;;
66189;SDS011;52992;52.084;5.412;2023-03-15T10:26:09;9.20;;;8.57;;
66189;SDS011;52992;52.084;5.412;2023-03-15T10:28:40;8.80;;;8.10;;
66189;SDS011;52992;52.084;5.412;2023-03-15T10:31:20;8.43;;;7.90;;
66189;SDS011;52992;52.084;5.412;2023-03-15T10:34:09;10.80;;;8.77;;
66189;SDS011;52992;52.084;5.412;2023-03-15T10:36:36;9.73;;;8.73;;
66189;SDS011;52992;52.084;5.412;2023-03-15T10:39:09;9.20;;;8.37;;
66189;SDS011;52992;52.084;5.412;2023-03-15T10:41:39;8.20;;;7.80;;
66189;SDS011;52992;52.084;5.412;2023-03-15T10:46:49;8.33;;;7.80;;
66189;SDS011;52992;52.084;5.412;2023-03-15T10:49:33;8.10;;;7.57;;
66189;SDS011;52992;52.084;5.412;2023-03-15T10:52:23;9.10;;;8.30;;
66189;SDS011;52992;52.084;5.412;2023-03-15T10:54:50;8.37;;;7.77;;
66189;SDS011;52992;52.084;5.412;2023-03-15T10:57:32;8.53;;;7.93;;
66189;SDS011;52992;52.084;5.412;2023-03-15T11:00:04;9.30;;;8.57;;
66189;SDS011;52992;52.084;5.412;2023-03-15T11:02:49;8.43;;;7.93;;
66189;SDS011;52992;52.084;5.412;2023-03-15T11:05:17;9.07;;;8.37;;
66189;SDS011;52992;52.084;5.412;2023-03-15T11:07:52;8.90;;;8.10;;
66189;SDS011;52992;52.084;5.412;2023-03-15T11:10:25;9.20;;;8.40;;
66189;SDS011;52992;52.084;5.412;2023-03-15T11:13:13;8.87;;;8.27;;
66189;SDS011;52992;52.084;5.412;2023-03-15T11:18:43;8.67;;;8.00;;
66189;SDS011;52992;52.084;5.412;2023-03-15T11:21:14;7.47;;;6.93;;
66189;SDS011;52992;52.084;5.412;2023-03-15T11:23:43;8.00;;;7.40;;
66189;SDS011;52992;52.084;5.412;2023-03-15T11:26:17;8.87;;;7.63;;
66189;SDS011;52992;52.084;5.412;2023-03-15T11:28:59;8.90;;;8.10;;
66189;SDS011;52992;52.084;5.412;2023-03-15T11:31:29;9.33;;;8.53;;
66189;SDS011;52992;52.084;5.412;2023-03-15T11:34:02;8.70;;;7.90;;
66189;SDS011;52992;52.084;5.412;2023-03-15T11:36:36;8.50;;;7.80;;
66189;SDS011;52992;52.084;5.412;2023-03-15T11:39:07;8.73;;;8.10;;
66189;SDS011;52992;52.084;5.412;2023-03-15T11:41:43;8.17;;;7.67;;
66189;SDS011;52992;52.084;5.412;2023-03-15T11:50:24;7.90;;;7.40;;
66189;SDS011;52992;52.084;5.412;2023-03-15T11:52:51;7.90;;;7.40;;
66189;SDS011;52992;52.084;5.412;2023-03-15T11:55:23;7.72;;;7.22;;
66189;SDS011;52992;52.084;5.412;2023-03-15T11:57:54;7.47;;;6.85;;
66189;SDS011;52992;52.084;5.412;2023-03-15T12:08:21;7.47;;;6.88;;
66189;SDS011;52992;52.084;5.412;2023-03-15T12:10:59;13.10;;;12.40;;
66189;SDS011;52992;52.084;5.412;2023-03-15T12:13:28;11.82;;;11.23;;
66189;SDS011;52992;52.084;5.412;2023-03-15T12:15:56;13.20;;;12.48;;
66189;SDS011;52992;52.084;5.412;2023-03-15T12:18:25;12.40;;;11.80;;
66189;SDS011;52992;52.084;5.412;2023-03-15T12:21:03;12.48;;;11.77;;
66189;SDS011;52992;52.084;5.412;2023-03-15T12:23:40;12.13;;;11.52;;
66189;SDS011;52992;52.084;5.412;2023-03-15T12:26:14;12.50;;;11.90;;
66189;SDS011;52992;52.084;5.412;2023-03-15T12:31:38;12.85;;;12.25;;
66189;SDS011;52992;52.084;5.412;2023-03-15T12:34:21;12.95;;;12.45;;
66189;SDS011;52992;52.084;5.412;2023-03-15T12:36:50;13.48;;;12.88;;
66189;SDS011;52992;52.084;5.412;2023-03-15T12:39:34;13.68;;;12.98;;
66189;SDS011;52992;52.084;5.412;2023-03-15T12:42:13;13.40;;;12.80;;
66189;SDS011;52992;52.084;5.412;2023-03-15T12:48:13;18.77;;;17.58;;
66189;SDS011;52992;52.084;5.412;2023-03-15T12:55:48;16.13;;;15.20;;
66189;SDS011;52992;52.084;5.412;2023-03-15T12:58:30;16.45;;;15.73;;
66189;SDS011;52992;52.084;5.412;2023-03-15T13:01:02;15.15;;;14.52;;
66189;SDS011;52992;52.084;5.412;2023-03-15T13:03:32;14.15;;;13.35;;
66189;SDS011;52992;52.084;5.412;2023-03-15T13:06:10;16.52;;;15.70;;
66189;SDS011;52992;52.084;5.412;2023-03-15T13:14:28;28.58;;;27.05;;
66189;SDS011;52992;52.084;5.412;2023-03-15T13:19:45;31.67;;;26.30;;
66189;SDS011;52992;52.084;5.412;2023-03-15T13:22:17;11.07;;;10.27;;
66189;SDS011;52992;52.084;5.412;2023-03-15T13:27:29;14.53;;;13.73;;
66189;SDS011;52992;52.084;5.412;2023-03-15T13:30:23;208.83;;;201.50;;
66189;SDS011;52992;52.084;5.412;2023-03-15T13:33:26;28.63;;;27.23;;
66189;SDS011;52992;52.084;5.412;2023-03-15T13:35:57;34.43;;;33.03;;
66189;SDS011;52992;52.084;5.412;2023-03-15T13:38:33;53.00;;;50.57;;
66189;SDS011;52992;52.084;5.412;2023-03-15T13:41:37;52.73;;;50.63;;
66189;SDS011;52992;52.084;5.412;2023-03-15T13:44:04;53.93;;;51.63;;
66189;SDS011;52992;52.084;5.412;2023-03-15T13:46:49;57.47;;;55.07;;
66189;SDS011;52992;52.084;5.412;2023-03-15T13:49:17;55.20;;;52.87;;
66189;SDS011;52992;52.084;5.412;2023-03-15T13:51:45;53.40;;;51.10;;
66189;SDS011;52992;52.084;5.412;2023-03-15T13:57:34;218.57;;;211.07;;
66189;SDS011;52992;52.084;5.412;2023-03-15T13:59:45;138.97;;;133.60;;
66189;SDS011;52992;52.084;5.412;2023-03-15T14:02:19;91.67;;;88.00;;
66189;SDS011;52992;52.084;5.412;2023-03-15T14:04:58;128.90;;;124.00;;
66189;SDS011;52992;52.084;5.412;2023-03-15T14:07:40;122.83;;;118.20;;
66189;SDS011;52992;52.084;5.412;2023-03-15T14:13:33;1999.90;;;999.90;;
66189;SDS011;52992;52.084;5.412;2023-03-15T14:16:03;1999.90;;;999.90;;
66189;SDS011;52992;52.084;5.412;2023-03-15T14:18:33;1999.90;;;999.90;;
66189;SDS011;52992;52.084;5.412;2023-03-15T14:21:05;1999.90;;;999.90;;
66189;SDS011;52992;52.084;5.412;2023-03-15T14:23:44;1999.90;;;999.90;;
66189;SDS011;52992;52.084;5.412;2023-03-15T14:31:27;1999.90;;;999.90;;
66189;SDS011;52992;52.084;5.412;2023-03-15T14:34:14;1999.90;;;999.90;;
66189;SDS011;52992;52.084;5.412;2023-03-15T14:36:49;1999.90;;;999.90;;
66189;SDS011;52992;52.084;5.412;2023-03-15T14:39:23;1999.90;;;999.90;;
66189;SDS011;52992;52.084;5.412;2023-03-15T14:41:53;1999.90;;;999.90;;
66189;SDS011;52992;52.084;5.412;2023-03-15T14:44:20;1999.90;;;999.90;;
66189;SDS011;52992;52.084;5.412;2023-03-15T14:46:47;1999.90;;;999.90;;
66189;SDS011;52992;52.084;5.412;2023-03-15T14:49:24;1999.90;;;999.90;;
66189;SDS011;52992;52.084;5.412;2023-03-15T14:51:54;1999.90;;;999.90;;
66189;SDS011;52992;52.084;5.412;2023-03-15T14:54:28;1999.90;;;999.90;;
66189;SDS011;52992;52.084;5.412;2023-03-15T14:56:55;1999.90;;;999.90;;
66189;SDS011;52992;52.084;5.412;2023-03-15T14:59:23;1999.90;;;999.90;;
66189;SDS011;52992;52.084;5.412;2023-03-15T15:01:54;1999.90;;;999.90;;
66189;SDS011;52992;52.084;5.412;2023-03-15T15:04:24;1999.90;;;999.90;;
66189;SDS011;52992;52.084;5.412;2023-03-15T15:06:54;1999.90;;;999.90;;
66189;SDS011;52992;52.084;5.412;2023-03-15T15:09:22;1999.90;;;999.90;;
66189;SDS011;52992;52.084;5.412;2023-03-15T15:11:51;1999.90;;;999.90;;
66189;SDS011;52992;52.084;5.412;2023-03-15T15:14:19;1999.90;;;999.90;;
66189;SDS011;52992;52.084;5.412;2023-03-15T15:16:47;1999.90;;;999.90;;
66189;SDS011;52992;52.084;5.412;2023-03-15T15:19:14;1999.90;;;999.90;;
66189;SDS011;52992;52.084;5.412;2023-03-15T15:21:42;1999.90;;;999.90;;
66189;SDS011;52992;52.084;5.412;2023-03-15T15:24:14;1999.90;;;999.90;;
66189;SDS011;52992;52.084;5.412;2023-03-15T15:26:42;1999.90;;;999.90;;
66189;SDS011;52992;52.084;5.412;2023-03-15T15:29:13;1999.90;;;999.90;;
66189;SDS011;52992;52.084;5.412;2023-03-15T15:31:41;1999.90;;;999.90;;
66189;SDS011;52992;52.084;5.412;2023-03-15T15:34:08;1999.90;;;999.90;;
66189;SDS011;52992;52.084;5.412;2023-03-15T15:36:40;1999.90;;;999.90;;
66189;SDS011;52992;52.084;5.412;2023-03-15T15:39:22;1999.90;;;999.90;;
66189;SDS011;52992;52.084;5.412;2023-03-15T15:41:52;1999.90;;;999.90;;
66189;SDS011;52992;52.084;5.412;2023-03-15T15:44:20;1999.90;;;999.90;;
66189;SDS011;52992;52.084;5.412;2023-03-15T15:46:49;1999.90;;;999.90;;
66189;SDS011;52992;52.084;5.412;2023-03-15T15:49:15;1999.90;;;999.90;;
66189;SDS011;52992;52.084;5.412;2023-03-15T15:51:45;1999.90;;;999.90;;
66189;SDS011;52992;52.084;5.412;2023-03-15T15:54:15;1999.90;;;999.90;;
66189;SDS011;52992;52.084;5.412;2023-03-15T15:56:54;1999.90;;;999.90;;
66189;SDS011;52992;52.084;5.412;2023-03-15T15:59:22;1999.90;;;999.90;;
66189;SDS011;52992;52.084;5.412;2023-03-15T16:01:52;1999.90;;;999.90;;
66189;SDS011;52992;52.084;5.412;2023-03-15T16:04:28;1999.90;;;999.90;;
66189;SDS011;52992;52.084;5.412;2023-03-15T16:06:56;1999.90;;;999.90;;
66189;SDS011;52992;52.084;5.412;2023-03-15T16:09:27;1999.90;;;999.90;;